sensor_id;sensor_type;location;lat;lon;timestamp;P1;durP1;ratioP1;P2;durP2;ratioP2
21860;SDS011;11095;48.066;8.540;2023-05-10T00:00:07;0.30;;;0.28;;
21860;SDS011;11095;48.066;8.540;2023-05-10T00:02:34;0.13;;;0.13;;
21860;SDS011;11095;48.066;8.540;2023-05-10T00:05:00;0.52;;;0.25;;
21860;SDS011;11095;48.066;8.540;2023-05-10T00:07:26;0.65;;;0.20;;
21860;SDS011;11095;48.066;8.540;2023-05-10T00:09:52;0.90;;;0.20;;
21860;SDS011;11095;48.066;8.540;2023-05-10T00:12:17;0.30;;;0.20;;
21860;SDS011;11095;48.066;8.540;2023-05-10T00:14:43;0.30;;;0.20;;
21860;SDS011;11095;48.066;8.540;2023-05-10T00:17:09;0.30;;;0.30;;
21860;SDS011;11095;48.066;8.540;2023-05-10T00:19:43;0.20;;;0.20;;
21860;SDS011;11095;48.066;8.540;2023-05-10T00:22:09;0.40;;;0.20;;
21860;SDS011;11095;48.066;8.540;2023-05-10T00:24:35;0.35;;;0.30;;
21860;SDS011;11095;48.066;8.540;2023-05-10T00:27:01;0.30;;;0.30;;
21860;SDS011;11095;48.066;8.540;2023-05-10T00:29:29;0.35;;;0.30;;
21860;SDS011;11095;48.066;8.540;2023-05-10T00:31:54;0.20;;;0.20;;
21860;SDS011;11095;48.066;8.540;2023-05-10T00:34:21;0.30;;;0.30;;
21860;SDS011;11095;48.066;8.540;2023-05-10T00:36:47;0.30;;;0.30;;
21860;SDS011;11095;48.066;8.540;2023-05-10T00:39:12;0.40;;;0.20;;
21860;SDS011;11095;48.066;8.540;2023-05-10T00:41:38;0.73;;;0.50;;
21860;SDS011;11095;48.066;8.540;2023-05-10T00:44:04;0.40;;;0.40;;
21860;SDS011;11095;48.066;8.540;2023-05-10T00:46:30;0.30;;;0.30;;
21860;SDS011;11095;48.066;8.540;2023-05-10T00:48:57;0.43;;;0.40;;
21860;SDS011;11095;48.066;8.540;2023-05-10T00:51:23;0.40;;;0.32;;
21860;SDS011;11095;48.066;8.540;2023-05-10T00:53:49;0.43;;;0.38;;
21860;SDS011;11095;48.066;8.540;2023-05-10T00:56:16;0.50;;;0.30;;
21860;SDS011;11095;48.066;8.540;2023-05-10T00:58:42;0.30;;;0.30;;
21860;SDS011;11095;48.066;8.540;2023-05-10T01:01:08;0.30;;;0.30;;
21860;SDS011;11095;48.066;8.540;2023-05-10T01:03:34;0.30;;;0.30;;
21860;SDS011;11095;48.066;8.540;2023-05-10T01:06:01;0.57;;;0.30;;
21860;SDS011;11095;48.066;8.540;2023-05-10T01:08:28;0.30;;;0.30;;
21860;SDS011;11095;48.066;8.540;2023-05-10T01:10:54;0.20;;;0.20;;
21860;SDS011;11095;48.066;8.540;2023-05-10T01:13:26;0.88;;;0.50;;
21860;SDS011;11095;48.066;8.540;2023-05-10T01:16:02;0.93;;;0.50;;
21860;SDS011;11095;48.066;8.540;2023-05-10T01:18:36;0.70;;;0.45;;
21860;SDS011;11095;48.066;8.540;2023-05-10T01:35:17;0.38;;;0.38;;
21860;SDS011;11095;48.066;8.540;2023-05-10T01:38:15;0.63;;;0.40;;
21860;SDS011;11095;48.066;8.540;2023-05-10T01:40:55;0.40;;;0.38;;
21860;SDS011;11095;48.066;8.540;2023-05-10T01:43:57;0.30;;;0.30;;
21860;SDS011;11095;48.066;8.540;2023-05-10T01:46:38;0.50;;;0.40;;
21860;SDS011;11095;48.066;8.540;2023-05-10T01:49:08;0.40;;;0.40;;
21860;SDS011;11095;48.066;8.540;2023-05-10T01:51:42;1.40;;;0.50;;
21860;SDS011;11095;48.066;8.540;2023-05-10T01:54:12;0.30;;;0.30;;
21860;SDS011;11095;48.066;8.540;2023-05-10T01:56:39;0.70;;;0.38;;
21860;SDS011;11095;48.066;8.540;2023-05-10T01:59:09;0.70;;;0.40;;
21860;SDS011;11095;48.066;8.540;2023-05-10T02:01:40;0.40;;;0.40;;
21860;SDS011;11095;48.066;8.540;2023-05-10T02:04:07;0.38;;;0.30;;
21860;SDS011;11095;48.066;8.540;2023-05-10T02:06:34;0.30;;;0.30;;
21860;SDS011;11095;48.066;8.540;2023-05-10T02:09:01;1.02;;;0.50;;
21860;SDS011;11095;48.066;8.540;2023-05-10T02:11:29;0.40;;;0.40;;
21860;SDS011;11095;48.066;8.540;2023-05-10T02:13:56;0.50;;;0.50;;
21860;SDS011;11095;48.066;8.540;2023-05-10T02:16:23;0.85;;;0.40;;
21860;SDS011;11095;48.066;8.540;2023-05-10T02:18:51;0.35;;;0.30;;
21860;SDS011;11095;48.066;8.540;2023-05-10T02:21:17;0.40;;;0.40;;
21860;SDS011;11095;48.066;8.540;2023-05-10T02:23:46;0.50;;;0.50;;
21860;SDS011;11095;48.066;8.540;2023-05-10T02:26:14;0.38;;;0.30;;
21860;SDS011;11095;48.066;8.540;2023-05-10T02:28:41;0.55;;;0.40;;
21860;SDS011;11095;48.066;8.540;2023-05-10T02:31:08;0.40;;;0.40;;
21860;SDS011;11095;48.066;8.540;2023-05-10T02:33:35;0.40;;;0.40;;
21860;SDS011;11095;48.066;8.540;2023-05-10T02:36:05;0.35;;;0.35;;
21860;SDS011;11095;48.066;8.540;2023-05-10T02:38:34;4.13;;;0.45;;
21860;SDS011;11095;48.066;8.540;2023-05-10T02:41:01;0.45;;;0.40;;
21860;SDS011;11095;48.066;8.540;2023-05-10T02:43:30;0.40;;;0.32;;
21860;SDS011;11095;48.066;8.540;2023-05-10T02:45:58;0.77;;;0.40;;
21860;SDS011;11095;48.066;8.540;2023-05-10T02:48:24;0.30;;;0.30;;
21860;SDS011;11095;48.066;8.540;2023-05-10T02:50:50;0.40;;;0.40;;
21860;SDS011;11095;48.066;8.540;2023-05-10T02:53:21;0.30;;;0.30;;
21860;SDS011;11095;48.066;8.540;2023-05-10T02:55:49;0.50;;;0.40;;
21860;SDS011;11095;48.066;8.540;2023-05-10T02:58:17;1.88;;;0.50;;
21860;SDS011;11095;48.066;8.540;2023-05-10T03:00:44;0.60;;;0.60;;
21860;SDS011;11095;48.066;8.540;2023-05-10T03:03:11;0.60;;;0.60;;
21860;SDS011;11095;48.066;8.540;2023-05-10T03:05:37;0.40;;;0.40;;
21860;SDS011;11095;48.066;8.540;2023-05-10T03:08:04;0.60;;;0.45;;
21860;SDS011;11095;48.066;8.540;2023-05-10T03:10:31;0.88;;;0.60;;
21860;SDS011;11095;48.066;8.540;2023-05-10T03:13:06;0.30;;;0.30;;
21860;SDS011;11095;48.066;8.540;2023-05-10T03:18:30;0.60;;;0.45;;
21860;SDS011;11095;48.066;8.540;2023-05-10T03:21:05;0.88;;;0.60;;
21860;SDS011;11095;48.066;8.540;2023-05-10T03:23:41;1.27;;;0.60;;
21860;SDS011;11095;48.066;8.540;2023-05-10T03:26:17;0.88;;;0.60;;
21860;SDS011;11095;48.066;8.540;2023-05-10T03:28:47;0.60;;;0.57;;
21860;SDS011;11095;48.066;8.540;2023-05-10T03:31:13;0.85;;;0.50;;
21860;SDS011;11095;48.066;8.540;2023-05-10T03:33:49;1.02;;;0.60;;
21860;SDS011;11095;48.066;8.540;2023-05-10T03:36:16;0.80;;;0.70;;
21860;SDS011;11095;48.066;8.540;2023-05-10T03:38:42;1.42;;;0.70;;
21860;SDS011;11095;48.066;8.540;2023-05-10T03:41:07;2.15;;;0.60;;
21860;SDS011;11095;48.066;8.540;2023-05-10T03:43:33;0.98;;;0.68;;
21860;SDS011;11095;48.066;8.540;2023-05-10T03:46:01;1.42;;;0.70;;
21860;SDS011;11095;48.066;8.540;2023-05-10T03:48:27;0.57;;;0.57;;
21860;SDS011;11095;48.066;8.540;2023-05-10T03:50:53;1.70;;;0.85;;
21860;SDS011;11095;48.066;8.540;2023-05-10T03:53:19;1.10;;;0.80;;
21860;SDS011;11095;48.066;8.540;2023-05-10T03:55:45;1.45;;;0.98;;
21860;SDS011;11095;48.066;8.540;2023-05-10T03:58:11;2.17;;;0.85;;
21860;SDS011;11095;48.066;8.540;2023-05-10T04:00:36;1.23;;;0.95;;
21860;SDS011;11095;48.066;8.540;2023-05-10T04:03:02;0.82;;;0.80;;
21860;SDS011;11095;48.066;8.540;2023-05-10T04:05:28;1.20;;;0.90;;
21860;SDS011;11095;48.066;8.540;2023-05-10T04:07:54;1.00;;;0.90;;
21860;SDS011;11095;48.066;8.540;2023-05-10T04:10:19;1.17;;;0.80;;
21860;SDS011;11095;48.066;8.540;2023-05-10T04:12:46;0.90;;;0.90;;
21860;SDS011;11095;48.066;8.540;2023-05-10T04:15:11;1.40;;;0.88;;
21860;SDS011;11095;48.066;8.540;2023-05-10T04:17:37;0.75;;;0.75;;
21860;SDS011;11095;48.066;8.540;2023-05-10T04:20:03;0.90;;;0.90;;
21860;SDS011;11095;48.066;8.540;2023-05-10T04:22:29;1.17;;;0.90;;
21860;SDS011;11095;48.066;8.540;2023-05-10T04:24:55;1.35;;;1.10;;
21860;SDS011;11095;48.066;8.540;2023-05-10T04:27:20;1.08;;;0.93;;
21860;SDS011;11095;48.066;8.540;2023-05-10T04:29:46;1.52;;;1.20;;
21860;SDS011;11095;48.066;8.540;2023-05-10T04:32:12;0.90;;;0.90;;
21860;SDS011;11095;48.066;8.540;2023-05-10T04:34:37;1.17;;;1.08;;
21860;SDS011;11095;48.066;8.540;2023-05-10T04:37:03;1.45;;;1.10;;
21860;SDS011;11095;48.066;8.540;2023-05-10T04:39:29;1.40;;;1.17;;
21860;SDS011;11095;48.066;8.540;2023-05-10T04:41:54;1.20;;;1.10;;
21860;SDS011;11095;48.066;8.540;2023-05-10T04:44:20;1.17;;;1.08;;
21860;SDS011;11095;48.066;8.540;2023-05-10T04:46:45;1.27;;;1.17;;
21860;SDS011;11095;48.066;8.540;2023-05-10T04:49:11;1.05;;;0.80;;
21860;SDS011;11095;48.066;8.540;2023-05-10T04:51:37;0.90;;;0.90;;
21860;SDS011;11095;48.066;8.540;2023-05-10T04:54:02;1.13;;;0.93;;
21860;SDS011;11095;48.066;8.540;2023-05-10T04:56:28;1.23;;;1.10;;
21860;SDS011;11095;48.066;8.540;2023-05-10T04:58:54;1.17;;;1.08;;
21860;SDS011;11095;48.066;8.540;2023-05-10T05:01:19;1.27;;;1.10;;
21860;SDS011;11095;48.066;8.540;2023-05-10T05:03:45;1.10;;;1.00;;
21860;SDS011;11095;48.066;8.540;2023-05-10T05:06:10;1.08;;;0.98;;
21860;SDS011;11095;48.066;8.540;2023-05-10T05:08:36;1.23;;;0.90;;
21860;SDS011;11095;48.066;8.540;2023-05-10T05:11:02;0.95;;;0.85;;
21860;SDS011;11095;48.066;8.540;2023-05-10T05:13:27;0.90;;;0.90;;
21860;SDS011;11095;48.066;8.540;2023-05-10T05:15:53;0.93;;;0.90;;
21860;SDS011;11095;48.066;8.540;2023-05-10T05:18:19;0.75;;;0.75;;
21860;SDS011;11095;48.066;8.540;2023-05-10T05:20:45;0.80;;;0.80;;
21860;SDS011;11095;48.066;8.540;2023-05-10T05:23:10;1.80;;;0.80;;
21860;SDS011;11095;48.066;8.540;2023-05-10T05:25:36;0.70;;;0.70;;
21860;SDS011;11095;48.066;8.540;2023-05-10T05:28:02;0.90;;;0.80;;
21860;SDS011;11095;48.066;8.540;2023-05-10T05:30:27;0.93;;;0.80;;
21860;SDS011;11095;48.066;8.540;2023-05-10T05:32:53;1.10;;;0.90;;
21860;SDS011;11095;48.066;8.540;2023-05-10T05:35:18;2.10;;;1.15;;
21860;SDS011;11095;48.066;8.540;2023-05-10T05:37:44;0.90;;;0.90;;
21860;SDS011;11095;48.066;8.540;2023-05-10T05:40:13;5.18;;;1.02;;
21860;SDS011;11095;48.066;8.540;2023-05-10T05:42:39;0.80;;;0.80;;
21860;SDS011;11095;48.066;8.540;2023-05-10T05:45:04;1.13;;;0.90;;
21860;SDS011;11095;48.066;8.540;2023-05-10T05:47:31;1.15;;;0.90;;
21860;SDS011;11095;48.066;8.540;2023-05-10T05:49:57;1.73;;;0.85;;
21860;SDS011;11095;48.066;8.540;2023-05-10T05:52:22;0.90;;;0.80;;
21860;SDS011;11095;48.066;8.540;2023-05-10T05:54:48;0.80;;;0.80;;
21860;SDS011;11095;48.066;8.540;2023-05-10T05:57:14;1.42;;;0.80;;
21860;SDS011;11095;48.066;8.540;2023-05-10T05:59:39;1.30;;;0.75;;
21860;SDS011;11095;48.066;8.540;2023-05-10T06:02:08;0.97;;;0.80;;
21860;SDS011;11095;48.066;8.540;2023-05-10T06:04:35;0.90;;;0.80;;
21860;SDS011;11095;48.066;8.540;2023-05-10T06:07:00;0.70;;;0.70;;
21860;SDS011;11095;48.066;8.540;2023-05-10T06:09:26;0.60;;;0.60;;
21860;SDS011;11095;48.066;8.540;2023-05-10T06:11:51;1.00;;;0.70;;
21860;SDS011;11095;48.066;8.540;2023-05-10T06:14:17;1.70;;;0.70;;
21860;SDS011;11095;48.066;8.540;2023-05-10T06:16:45;0.70;;;0.55;;
21860;SDS011;11095;48.066;8.540;2023-05-10T06:19:11;0.50;;;0.50;;
21860;SDS011;11095;48.066;8.540;2023-05-10T06:21:37;0.75;;;0.65;;
21860;SDS011;11095;48.066;8.540;2023-05-10T06:24:02;0.60;;;0.60;;
21860;SDS011;11095;48.066;8.540;2023-05-10T06:26:28;1.23;;;0.80;;
21860;SDS011;11095;48.066;8.540;2023-05-10T06:28:54;2.83;;;0.60;;
21860;SDS011;11095;48.066;8.540;2023-05-10T06:31:19;0.70;;;0.70;;
21860;SDS011;11095;48.066;8.540;2023-05-10T06:33:45;0.90;;;0.50;;
21860;SDS011;11095;48.066;8.540;2023-05-10T06:36:11;0.90;;;0.77;;
21860;SDS011;11095;48.066;8.540;2023-05-10T06:38:38;1.73;;;0.77;;
21860;SDS011;11095;48.066;8.540;2023-05-10T06:41:03;1.00;;;0.90;;
21860;SDS011;11095;48.066;8.540;2023-05-10T06:43:29;1.25;;;0.60;;
21860;SDS011;11095;48.066;8.540;2023-05-10T06:45:55;0.68;;;0.68;;
21860;SDS011;11095;48.066;8.540;2023-05-10T06:48:20;1.88;;;0.65;;
21860;SDS011;11095;48.066;8.540;2023-05-10T06:50:46;0.95;;;0.77;;
21860;SDS011;11095;48.066;8.540;2023-05-10T06:53:12;0.70;;;0.70;;
21860;SDS011;11095;48.066;8.540;2023-05-10T06:55:38;0.60;;;0.60;;
21860;SDS011;11095;48.066;8.540;2023-05-10T06:58:04;0.80;;;0.70;;
21860;SDS011;11095;48.066;8.540;2023-05-10T07:00:30;1.33;;;0.60;;
21860;SDS011;11095;48.066;8.540;2023-05-10T07:02:55;1.80;;;0.80;;
21860;SDS011;11095;48.066;8.540;2023-05-10T07:05:21;0.60;;;0.60;;
21860;SDS011;11095;48.066;8.540;2023-05-10T07:07:47;0.90;;;0.70;;
21860;SDS011;11095;48.066;8.540;2023-05-10T07:10:13;1.77;;;0.90;;
21860;SDS011;11095;48.066;8.540;2023-05-10T07:12:38;0.82;;;0.70;;
21860;SDS011;11095;48.066;8.540;2023-05-10T07:15:04;0.90;;;0.70;;
21860;SDS011;11095;48.066;8.540;2023-05-10T07:17:31;1.13;;;0.90;;
21860;SDS011;11095;48.066;8.540;2023-05-10T07:19:58;1.02;;;0.80;;
21860;SDS011;11095;48.066;8.540;2023-05-10T07:22:24;2.50;;;1.02;;
21860;SDS011;11095;48.066;8.540;2023-05-10T07:24:49;1.50;;;0.90;;
21860;SDS011;11095;48.066;8.540;2023-05-10T07:27:15;0.82;;;0.80;;
21860;SDS011;11095;48.066;8.540;2023-05-10T07:29:41;1.17;;;0.90;;
21860;SDS011;11095;48.066;8.540;2023-05-10T07:32:07;2.13;;;0.98;;
21860;SDS011;11095;48.066;8.540;2023-05-10T07:34:32;1.45;;;0.90;;
21860;SDS011;11095;48.066;8.540;2023-05-10T07:36:58;1.17;;;1.00;;
21860;SDS011;11095;48.066;8.540;2023-05-10T07:39:24;1.70;;;0.90;;
21860;SDS011;11095;48.066;8.540;2023-05-10T07:41:51;2.78;;;1.20;;
21860;SDS011;11095;48.066;8.540;2023-05-10T07:44:16;0.93;;;0.65;;
21860;SDS011;11095;48.066;8.540;2023-05-10T07:46:44;1.45;;;0.65;;
21860;SDS011;11095;48.066;8.540;2023-05-10T07:49:09;1.05;;;0.55;;
21860;SDS011;11095;48.066;8.540;2023-05-10T07:51:35;0.45;;;0.45;;
21860;SDS011;11095;48.066;8.540;2023-05-10T07:54:00;0.68;;;0.40;;
21860;SDS011;11095;48.066;8.540;2023-05-10T07:56:28;0.93;;;0.50;;
21860;SDS011;11095;48.066;8.540;2023-05-10T07:58:56;0.63;;;0.40;;
21860;SDS011;11095;48.066;8.540;2023-05-10T08:01:23;0.55;;;0.50;;
21860;SDS011;11095;48.066;8.540;2023-05-10T08:03:49;0.50;;;0.50;;
21860;SDS011;11095;48.066;8.540;2023-05-10T08:06:16;0.80;;;0.52;;
21860;SDS011;11095;48.066;8.540;2023-05-10T08:08:43;1.33;;;0.40;;
21860;SDS011;11095;48.066;8.540;2023-05-10T08:11:10;0.55;;;0.50;;
21860;SDS011;11095;48.066;8.540;2023-05-10T08:13:36;1.35;;;0.40;;
21860;SDS011;11095;48.066;8.540;2023-05-10T08:16:02;1.38;;;0.60;;
21860;SDS011;11095;48.066;8.540;2023-05-10T08:18:27;0.90;;;0.50;;
21860;SDS011;11095;48.066;8.540;2023-05-10T08:20:53;0.68;;;0.50;;
21860;SDS011;11095;48.066;8.540;2023-05-10T08:23:19;0.45;;;0.45;;
21860;SDS011;11095;48.066;8.540;2023-05-10T08:25:44;1.45;;;0.50;;
21860;SDS011;11095;48.066;8.540;2023-05-10T08:28:10;0.75;;;0.40;;
21860;SDS011;11095;48.066;8.540;2023-05-10T08:30:36;0.40;;;0.30;;
21860;SDS011;11095;48.066;8.540;2023-05-10T08:33:01;1.10;;;0.50;;
21860;SDS011;11095;48.066;8.540;2023-05-10T08:35:27;0.75;;;0.50;;
21860;SDS011;11095;48.066;8.540;2023-05-10T08:37:53;0.40;;;0.40;;
21860;SDS011;11095;48.066;8.540;2023-05-10T08:40:19;0.50;;;0.47;;
21860;SDS011;11095;48.066;8.540;2023-05-10T08:42:48;0.95;;;0.40;;
21860;SDS011;11095;48.066;8.540;2023-05-10T08:45:21;2.47;;;1.45;;
21860;SDS011;11095;48.066;8.540;2023-05-10T08:47:48;1.63;;;1.05;;
21860;SDS011;11095;48.066;8.540;2023-05-10T08:50:16;0.80;;;0.55;;
21860;SDS011;11095;48.066;8.540;2023-05-10T08:52:45;0.90;;;0.43;;
21860;SDS011;11095;48.066;8.540;2023-05-10T08:55:12;1.25;;;0.80;;
21860;SDS011;11095;48.066;8.540;2023-05-10T08:57:38;1.05;;;0.80;;
21860;SDS011;11095;48.066;8.540;2023-05-10T09:00:04;0.40;;;0.30;;
21860;SDS011;11095;48.066;8.540;2023-05-10T09:02:32;1.23;;;0.60;;
21860;SDS011;11095;48.066;8.540;2023-05-10T09:04:58;0.98;;;0.60;;
21860;SDS011;11095;48.066;8.540;2023-05-10T09:07:23;0.88;;;0.55;;
21860;SDS011;11095;48.066;8.540;2023-05-10T09:09:49;2.45;;;1.33;;
21860;SDS011;11095;48.066;8.540;2023-05-10T09:12:15;1.50;;;0.80;;
21860;SDS011;11095;48.066;8.540;2023-05-10T09:14:42;3.20;;;0.50;;
21860;SDS011;11095;48.066;8.540;2023-05-10T09:17:09;1.15;;;0.50;;
21860;SDS011;11095;48.066;8.540;2023-05-10T09:19:35;1.30;;;0.65;;
21860;SDS011;11095;48.066;8.540;2023-05-10T09:22:01;2.20;;;0.60;;
21860;SDS011;11095;48.066;8.540;2023-05-10T09:24:28;1.30;;;0.60;;
21860;SDS011;11095;48.066;8.540;2023-05-10T09:26:55;0.73;;;0.60;;
21860;SDS011;11095;48.066;8.540;2023-05-10T09:29:22;2.03;;;0.60;;
21860;SDS011;11095;48.066;8.540;2023-05-10T09:31:48;1.27;;;0.43;;
21860;SDS011;11095;48.066;8.540;2023-05-10T09:34:19;1.05;;;0.50;;
21860;SDS011;11095;48.066;8.540;2023-05-10T09:36:53;1.08;;;0.57;;
21860;SDS011;11095;48.066;8.540;2023-05-10T09:39:21;1.20;;;0.43;;
21860;SDS011;11095;48.066;8.540;2023-05-10T09:41:59;0.68;;;0.43;;
21860;SDS011;11095;48.066;8.540;2023-05-10T09:46:54;1.05;;;0.50;;
21860;SDS011;11095;48.066;8.540;2023-05-10T09:49:22;0.60;;;0.57;;
21860;SDS011;11095;48.066;8.540;2023-05-10T09:52:21;0.77;;;0.63;;
21860;SDS011;11095;48.066;8.540;2023-05-10T09:54:42;1.15;;;0.60;;
21860;SDS011;11095;48.066;8.540;2023-05-10T09:57:21;0.85;;;0.40;;
21860;SDS011;11095;48.066;8.540;2023-05-10T09:59:47;0.65;;;0.50;;
21860;SDS011;11095;48.066;8.540;2023-05-10T10:02:14;2.10;;;0.40;;
21860;SDS011;11095;48.066;8.540;2023-05-10T10:04:40;0.75;;;0.50;;
21860;SDS011;11095;48.066;8.540;2023-05-10T10:07:06;0.65;;;0.60;;
21860;SDS011;11095;48.066;8.540;2023-05-10T10:09:32;2.47;;;0.60;;
21860;SDS011;11095;48.066;8.540;2023-05-10T10:12:00;1.83;;;0.40;;
21860;SDS011;11095;48.066;8.540;2023-05-10T10:14:27;1.08;;;0.45;;
21860;SDS011;11095;48.066;8.540;2023-05-10T10:16:53;0.70;;;0.45;;
21860;SDS011;11095;48.066;8.540;2023-05-10T10:19:19;3.25;;;0.60;;
21860;SDS011;11095;48.066;8.540;2023-05-10T10:21:47;1.30;;;0.52;;
21860;SDS011;11095;48.066;8.540;2023-05-10T10:24:14;1.73;;;0.50;;
21860;SDS011;11095;48.066;8.540;2023-05-10T10:26:41;0.30;;;0.30;;
21860;SDS011;11095;48.066;8.540;2023-05-10T10:29:30;1.67;;;0.40;;
21860;SDS011;11095;48.066;8.540;2023-05-10T10:34:27;1.80;;;0.50;;
21860;SDS011;11095;48.066;8.540;2023-05-10T10:36:55;1.33;;;0.80;;
21860;SDS011;11095;48.066;8.540;2023-05-10T10:39:21;1.60;;;0.68;;
21860;SDS011;11095;48.066;8.540;2023-05-10T10:41:53;1.52;;;0.80;;
21860;SDS011;11095;48.066;8.540;2023-05-10T10:50:03;1.38;;;0.60;;
21860;SDS011;11095;48.066;8.540;2023-05-10T10:52:31;1.35;;;0.70;;
21860;SDS011;11095;48.066;8.540;2023-05-10T10:55:14;2.10;;;0.65;;
21860;SDS011;11095;48.066;8.540;2023-05-10T10:57:50;1.27;;;0.70;;
21860;SDS011;11095;48.066;8.540;2023-05-10T11:02:59;2.15;;;0.77;;
21860;SDS011;11095;48.066;8.540;2023-05-10T11:08:14;1.45;;;0.60;;
21860;SDS011;11095;48.066;8.540;2023-05-10T11:10:50;3.10;;;0.75;;
21860;SDS011;11095;48.066;8.540;2023-05-10T11:15:57;0.75;;;0.50;;
21860;SDS011;11095;48.066;8.540;2023-05-10T11:18:25;1.08;;;0.60;;
21860;SDS011;11095;48.066;8.540;2023-05-10T11:21:01;1.10;;;0.60;;
21860;SDS011;11095;48.066;8.540;2023-05-10T11:23:47;0.70;;;0.70;;
21860;SDS011;11095;48.066;8.540;2023-05-10T11:26:21;1.35;;;0.73;;
21860;SDS011;11095;48.066;8.540;2023-05-10T11:28:51;1.42;;;0.63;;
21860;SDS011;11095;48.066;8.540;2023-05-10T11:31:19;1.00;;;0.70;;
21860;SDS011;11095;48.066;8.540;2023-05-10T11:33:45;1.25;;;0.70;;
21860;SDS011;11095;48.066;8.540;2023-05-10T11:36:16;2.50;;;0.70;;
21860;SDS011;11095;48.066;8.540;2023-05-10T11:38:43;1.55;;;0.50;;
21860;SDS011;11095;48.066;8.540;2023-05-10T11:41:09;1.30;;;0.60;;
21860;SDS011;11095;48.066;8.540;2023-05-10T11:43:37;1.98;;;0.90;;
21860;SDS011;11095;48.066;8.540;2023-05-10T11:46:07;1.95;;;0.70;;
21860;SDS011;11095;48.066;8.540;2023-05-10T11:48:35;2.03;;;0.77;;
21860;SDS011;11095;48.066;8.540;2023-05-10T11:51:01;1.42;;;0.70;;
21860;SDS011;11095;48.066;8.540;2023-05-10T11:53:31;0.70;;;0.50;;
21860;SDS011;11095;48.066;8.540;2023-05-10T11:56:06;1.30;;;0.70;;
21860;SDS011;11095;48.066;8.540;2023-05-10T11:58:33;2.97;;;0.75;;
21860;SDS011;11095;48.066;8.540;2023-05-10T12:01:00;1.50;;;0.70;;
21860;SDS011;11095;48.066;8.540;2023-05-10T12:03:26;1.52;;;0.68;;
21860;SDS011;11095;48.066;8.540;2023-05-10T12:05:53;2.00;;;0.70;;
21860;SDS011;11095;48.066;8.540;2023-05-10T12:08:21;0.60;;;0.40;;
21860;SDS011;11095;48.066;8.540;2023-05-10T12:10:47;1.80;;;0.60;;
21860;SDS011;11095;48.066;8.540;2023-05-10T12:13:13;1.67;;;0.60;;
21860;SDS011;11095;48.066;8.540;2023-05-10T12:15:40;0.80;;;0.50;;
21860;SDS011;11095;48.066;8.540;2023-05-10T12:18:08;1.23;;;0.52;;
21860;SDS011;11095;48.066;8.540;2023-05-10T12:20:35;2.03;;;0.60;;
21860;SDS011;11095;48.066;8.540;2023-05-10T12:23:01;1.02;;;0.60;;
21860;SDS011;11095;48.066;8.540;2023-05-10T12:25:35;1.90;;;0.70;;
21860;SDS011;11095;48.066;8.540;2023-05-10T12:28:02;1.83;;;0.70;;
21860;SDS011;11095;48.066;8.540;2023-05-10T12:30:30;1.35;;;0.52;;
21860;SDS011;11095;48.066;8.540;2023-05-10T12:33:01;1.30;;;0.60;;
21860;SDS011;11095;48.066;8.540;2023-05-10T12:35:31;2.60;;;0.60;;
21860;SDS011;11095;48.066;8.540;2023-05-10T12:37:57;1.23;;;0.55;;
21860;SDS011;11095;48.066;8.540;2023-05-10T12:40:23;1.38;;;0.50;;
21860;SDS011;11095;48.066;8.540;2023-05-10T12:42:49;1.52;;;0.50;;
21860;SDS011;11095;48.066;8.540;2023-05-10T12:45:15;1.90;;;0.50;;
21860;SDS011;11095;48.066;8.540;2023-05-10T12:47:43;1.20;;;0.60;;
21860;SDS011;11095;48.066;8.540;2023-05-10T12:50:08;0.82;;;0.57;;
21860;SDS011;11095;48.066;8.540;2023-05-10T12:52:34;2.75;;;0.60;;
21860;SDS011;11095;48.066;8.540;2023-05-10T12:55:00;2.03;;;0.68;;
21860;SDS011;11095;48.066;8.540;2023-05-10T12:57:27;0.95;;;0.43;;
21860;SDS011;11095;48.066;8.540;2023-05-10T12:59:53;4.00;;;0.70;;
21860;SDS011;11095;48.066;8.540;2023-05-10T13:02:19;1.08;;;0.50;;
21860;SDS011;11095;48.066;8.540;2023-05-10T13:04:46;1.30;;;0.60;;
21860;SDS011;11095;48.066;8.540;2023-05-10T13:07:12;0.65;;;0.38;;
21860;SDS011;11095;48.066;8.540;2023-05-10T13:09:39;1.92;;;0.68;;
21860;SDS011;11095;48.066;8.540;2023-05-10T13:12:05;2.25;;;0.60;;
21860;SDS011;11095;48.066;8.540;2023-05-10T13:14:31;1.77;;;0.60;;
21860;SDS011;11095;48.066;8.540;2023-05-10T13:16:56;1.08;;;0.50;;
21860;SDS011;11095;48.066;8.540;2023-05-10T13:19:22;3.75;;;2.20;;
21860;SDS011;11095;48.066;8.540;2023-05-10T13:21:48;2.60;;;1.00;;
21860;SDS011;11095;48.066;8.540;2023-05-10T13:24:13;4.00;;;0.88;;
21860;SDS011;11095;48.066;8.540;2023-05-10T13:26:42;2.08;;;0.65;;
21860;SDS011;11095;48.066;8.540;2023-05-10T13:29:08;3.53;;;0.80;;
21860;SDS011;11095;48.066;8.540;2023-05-10T13:31:34;12.65;;;1.50;;
21860;SDS011;11095;48.066;8.540;2023-05-10T13:34:00;4.45;;;1.00;;
21860;SDS011;11095;48.066;8.540;2023-05-10T13:36:27;5.70;;;1.02;;
21860;SDS011;11095;48.066;8.540;2023-05-10T13:38:53;2.50;;;0.73;;
21860;SDS011;11095;48.066;8.540;2023-05-10T13:41:18;2.90;;;0.60;;
21860;SDS011;11095;48.066;8.540;2023-05-10T13:43:44;4.18;;;0.90;;
21860;SDS011;11095;48.066;8.540;2023-05-10T13:46:09;1.55;;;0.70;;
21860;SDS011;11095;48.066;8.540;2023-05-10T13:48:35;0.85;;;0.40;;
21860;SDS011;11095;48.066;8.540;2023-05-10T13:51:02;1.27;;;0.60;;
21860;SDS011;11095;48.066;8.540;2023-05-10T13:53:28;10.57;;;1.60;;
21860;SDS011;11095;48.066;8.540;2023-05-10T13:55:53;3.05;;;0.65;;
21860;SDS011;11095;48.066;8.540;2023-05-10T13:58:19;2.47;;;0.85;;
21860;SDS011;11095;48.066;8.540;2023-05-10T14:00:45;1.52;;;0.80;;
21860;SDS011;11095;48.066;8.540;2023-05-10T14:03:10;1.67;;;0.50;;
21860;SDS011;11095;48.066;8.540;2023-05-10T14:05:36;2.15;;;0.73;;
21860;SDS011;11095;48.066;8.540;2023-05-10T14:08:02;2.13;;;0.70;;
21860;SDS011;11095;48.066;8.540;2023-05-10T14:10:27;1.85;;;0.57;;
21860;SDS011;11095;48.066;8.540;2023-05-10T14:12:53;1.27;;;0.43;;
21860;SDS011;11095;48.066;8.540;2023-05-10T14:15:19;1.52;;;0.60;;
21860;SDS011;11095;48.066;8.540;2023-05-10T14:17:44;1.63;;;0.52;;
21860;SDS011;11095;48.066;8.540;2023-05-10T14:20:10;0.82;;;0.60;;
21860;SDS011;11095;48.066;8.540;2023-05-10T14:22:36;0.77;;;0.50;;
21860;SDS011;11095;48.066;8.540;2023-05-10T14:25:01;0.73;;;0.40;;
21860;SDS011;11095;48.066;8.540;2023-05-10T14:27:27;1.75;;;0.60;;
21860;SDS011;11095;48.066;8.540;2023-05-10T14:29:53;0.50;;;0.40;;
21860;SDS011;11095;48.066;8.540;2023-05-10T14:32:19;0.57;;;0.50;;
21860;SDS011;11095;48.066;8.540;2023-05-10T14:34:44;2.15;;;0.63;;
21860;SDS011;11095;48.066;8.540;2023-05-10T14:37:11;1.33;;;0.68;;
21860;SDS011;11095;48.066;8.540;2023-05-10T14:39:38;1.48;;;0.60;;
21860;SDS011;11095;48.066;8.540;2023-05-10T14:42:04;1.98;;;0.63;;
21860;SDS011;11095;48.066;8.540;2023-05-10T14:44:30;3.97;;;0.70;;
21860;SDS011;11095;48.066;8.540;2023-05-10T14:46:56;1.48;;;0.60;;
21860;SDS011;11095;48.066;8.540;2023-05-10T14:49:22;1.35;;;0.43;;
21860;SDS011;11095;48.066;8.540;2023-05-10T14:51:50;1.13;;;0.68;;
21860;SDS011;11095;48.066;8.540;2023-05-10T14:54:16;1.13;;;0.50;;
21860;SDS011;11095;48.066;8.540;2023-05-10T14:56:41;1.60;;;0.50;;
21860;SDS011;11095;48.066;8.540;2023-05-10T14:59:07;0.88;;;0.47;;
21860;SDS011;11095;48.066;8.540;2023-05-10T15:01:33;1.30;;;0.30;;
21860;SDS011;11095;48.066;8.540;2023-05-10T15:04:02;1.05;;;0.50;;
21860;SDS011;11095;48.066;8.540;2023-05-10T15:06:32;0.85;;;0.50;;
21860;SDS011;11095;48.066;8.540;2023-05-10T15:08:59;0.93;;;0.30;;
21860;SDS011;11095;48.066;8.540;2023-05-10T15:11:25;0.93;;;0.50;;
21860;SDS011;11095;48.066;8.540;2023-05-10T15:13:51;2.00;;;0.50;;
21860;SDS011;11095;48.066;8.540;2023-05-10T15:16:17;1.58;;;0.50;;
21860;SDS011;11095;48.066;8.540;2023-05-10T15:18:42;1.00;;;0.47;;
21860;SDS011;11095;48.066;8.540;2023-05-10T15:21:08;1.23;;;0.50;;
21860;SDS011;11095;48.066;8.540;2023-05-10T15:23:34;0.88;;;0.52;;